sensor_id;sensor_type;location;lat;lon;timestamp;P1;durP1;ratioP1;P2;durP2;ratioP2
67516;SDS011;68821;59.134;37.894;2023-05-10T00:01:53;12.15;;;2.75;;
67516;SDS011;68821;59.134;37.894;2023-05-10T00:04:20;6.55;;;2.30;;
67516;SDS011;68821;59.134;37.894;2023-05-10T00:06:46;10.68;;;2.30;;
67516;SDS011;68821;59.134;37.894;2023-05-10T00:09:12;6.28;;;2.33;;
67516;SDS011;68821;59.134;37.894;2023-05-10T00:11:39;8.75;;;2.90;;
67516;SDS011;68821;59.134;37.894;2023-05-10T00:14:05;10.57;;;2.47;;
67516;SDS011;68821;59.134;37.894;2023-05-10T00:16:31;9.00;;;2.55;;
67516;SDS011;68821;59.134;37.894;2023-05-10T00:18:57;10.10;;;2.75;;
67516;SDS011;68821;59.134;37.894;2023-05-10T00:21:24;9.77;;;2.70;;
67516;SDS011;68821;59.134;37.894;2023-05-10T00:23:50;11.10;;;2.38;;
67516;SDS011;68821;59.134;37.894;2023-05-10T00:26:16;14.85;;;3.13;;
67516;SDS011;68821;59.134;37.894;2023-05-10T00:28:42;14.98;;;2.60;;
67516;SDS011;68821;59.134;37.894;2023-05-10T00:31:08;10.10;;;2.70;;
67516;SDS011;68821;59.134;37.894;2023-05-10T00:33:34;11.38;;;2.30;;
67516;SDS011;68821;59.134;37.894;2023-05-10T00:36:00;19.42;;;3.72;;
67516;SDS011;68821;59.134;37.894;2023-05-10T00:38:26;7.47;;;2.75;;
67516;SDS011;68821;59.134;37.894;2023-05-10T00:40:52;11.65;;;2.60;;
67516;SDS011;68821;59.134;37.894;2023-05-10T00:43:18;11.60;;;3.10;;
67516;SDS011;68821;59.134;37.894;2023-05-10T00:45:44;13.25;;;3.25;;
67516;SDS011;68821;59.134;37.894;2023-05-10T00:48:11;14.02;;;3.10;;
67516;SDS011;68821;59.134;37.894;2023-05-10T00:50:37;17.90;;;3.95;;
67516;SDS011;68821;59.134;37.894;2023-05-10T00:53:05;14.80;;;3.08;;
67516;SDS011;68821;59.134;37.894;2023-05-10T00:55:31;10.60;;;2.38;;
67516;SDS011;68821;59.134;37.894;2023-05-10T00:57:58;10.13;;;3.35;;
67516;SDS011;68821;59.134;37.894;2023-05-10T01:00:24;12.75;;;3.08;;
67516;SDS011;68821;59.134;37.894;2023-05-10T01:02:52;11.23;;;3.38;;
67516;SDS011;68821;59.134;37.894;2023-05-10T01:05:19;16.25;;;3.33;;
67516;SDS011;68821;59.134;37.894;2023-05-10T01:07:45;8.82;;;3.30;;
67516;SDS011;68821;59.134;37.894;2023-05-10T01:10:11;9.70;;;3.75;;
67516;SDS011;68821;59.134;37.894;2023-05-10T01:12:39;9.52;;;3.10;;
67516;SDS011;68821;59.134;37.894;2023-05-10T01:15:08;9.40;;;3.20;;
67516;SDS011;68821;59.134;37.894;2023-05-10T01:17:37;9.45;;;3.00;;
67516;SDS011;68821;59.134;37.894;2023-05-10T01:20:06;9.75;;;3.72;;
67516;SDS011;68821;59.134;37.894;2023-05-10T01:31:54;10.68;;;3.05;;
67516;SDS011;68821;59.134;37.894;2023-05-10T01:35:20;12.65;;;3.33;;
67516;SDS011;68821;59.134;37.894;2023-05-10T01:40:20;12.82;;;3.35;;
67516;SDS011;68821;59.134;37.894;2023-05-10T01:42:54;10.80;;;4.10;;
67516;SDS011;68821;59.134;37.894;2023-05-10T01:45:28;8.30;;;2.90;;
67516;SDS011;68821;59.134;37.894;2023-05-10T01:48:11;8.30;;;3.08;;
67516;SDS011;68821;59.134;37.894;2023-05-10T01:50:40;11.63;;;3.13;;
67516;SDS011;68821;59.134;37.894;2023-05-10T01:53:09;12.52;;;3.65;;
67516;SDS011;68821;59.134;37.894;2023-05-10T01:55:44;10.05;;;3.53;;
67516;SDS011;68821;59.134;37.894;2023-05-10T01:58:15;7.50;;;3.33;;
67516;SDS011;68821;59.134;37.894;2023-05-10T02:00:46;15.30;;;4.68;;
67516;SDS011;68821;59.134;37.894;2023-05-10T02:03:14;12.23;;;5.15;;
67516;SDS011;68821;59.134;37.894;2023-05-10T02:05:41;12.50;;;3.72;;
67516;SDS011;68821;59.134;37.894;2023-05-10T02:08:10;10.18;;;3.78;;
67516;SDS011;68821;59.134;37.894;2023-05-10T02:10:37;19.25;;;3.72;;
67516;SDS011;68821;59.134;37.894;2023-05-10T02:13:11;14.30;;;4.05;;
67516;SDS011;68821;59.134;37.894;2023-05-10T02:15:39;13.27;;;3.50;;
67516;SDS011;68821;59.134;37.894;2023-05-10T02:18:07;7.72;;;3.42;;
67516;SDS011;68821;59.134;37.894;2023-05-10T02:20:35;17.13;;;3.33;;
67516;SDS011;68821;59.134;37.894;2023-05-10T02:23:02;12.75;;;3.72;;
67516;SDS011;68821;59.134;37.894;2023-05-10T02:25:29;11.65;;;3.53;;
67516;SDS011;68821;59.134;37.894;2023-05-10T02:27:58;13.85;;;3.40;;
67516;SDS011;68821;59.134;37.894;2023-05-10T02:30:27;11.00;;;3.75;;
67516;SDS011;68821;59.134;37.894;2023-05-10T02:32:54;17.30;;;3.28;;
67516;SDS011;68821;59.134;37.894;2023-05-10T02:35:22;15.32;;;5.45;;
67516;SDS011;68821;59.134;37.894;2023-05-10T02:37:49;23.20;;;4.47;;
67516;SDS011;68821;59.134;37.894;2023-05-10T02:40:16;17.30;;;4.70;;
67516;SDS011;68821;59.134;37.894;2023-05-10T02:42:45;17.92;;;4.85;;
67516;SDS011;68821;59.134;37.894;2023-05-10T02:45:15;24.52;;;5.97;;
67516;SDS011;68821;59.134;37.894;2023-05-10T02:47:45;25.17;;;5.38;;
67516;SDS011;68821;59.134;37.894;2023-05-10T02:50:11;15.98;;;4.55;;
67516;SDS011;68821;59.134;37.894;2023-05-10T02:52:42;16.02;;;4.90;;
67516;SDS011;68821;59.134;37.894;2023-05-10T02:55:12;18.08;;;4.30;;
67516;SDS011;68821;59.134;37.894;2023-05-10T02:57:47;22.02;;;5.07;;
67516;SDS011;68821;59.134;37.894;2023-05-10T03:00:17;20.42;;;4.57;;
67516;SDS011;68821;59.134;37.894;2023-05-10T03:02:43;25.50;;;5.25;;
67516;SDS011;68821;59.134;37.894;2023-05-10T03:05:09;24.25;;;4.50;;
67516;SDS011;68821;59.134;37.894;2023-05-10T03:07:35;28.40;;;5.03;;
67516;SDS011;68821;59.134;37.894;2023-05-10T03:10:02;18.88;;;4.50;;
67516;SDS011;68821;59.134;37.894;2023-05-10T03:15:22;17.02;;;6.05;;
67516;SDS011;68821;59.134;37.894;2023-05-10T03:20:32;20.98;;;5.38;;
67516;SDS011;68821;59.134;37.894;2023-05-10T03:23:22;21.45;;;4.63;;
67516;SDS011;68821;59.134;37.894;2023-05-10T03:25:55;20.27;;;6.70;;
67516;SDS011;68821;59.134;37.894;2023-05-10T03:28:23;19.85;;;6.03;;
67516;SDS011;68821;59.134;37.894;2023-05-10T03:30:52;36.78;;;6.15;;
67516;SDS011;68821;59.134;37.894;2023-05-10T03:33:20;20.00;;;5.55;;
67516;SDS011;68821;59.134;37.894;2023-05-10T03:35:46;21.15;;;6.20;;
67516;SDS011;68821;59.134;37.894;2023-05-10T03:38:12;22.00;;;6.70;;
67516;SDS011;68821;59.134;37.894;2023-05-10T03:40:38;50.83;;;13.88;;
67516;SDS011;68821;59.134;37.894;2023-05-10T03:43:04;44.10;;;12.95;;
67516;SDS011;68821;59.134;37.894;2023-05-10T03:45:31;48.05;;;12.35;;
67516;SDS011;68821;59.134;37.894;2023-05-10T03:47:57;30.55;;;8.20;;
67516;SDS011;68821;59.134;37.894;2023-05-10T03:50:24;27.75;;;8.15;;
67516;SDS011;68821;59.134;37.894;2023-05-10T03:52:50;35.05;;;9.75;;
67516;SDS011;68821;59.134;37.894;2023-05-10T03:55:16;38.03;;;11.55;;
67516;SDS011;68821;59.134;37.894;2023-05-10T03:57:43;29.02;;;9.95;;
67516;SDS011;68821;59.134;37.894;2023-05-10T04:00:09;33.63;;;8.60;;
67516;SDS011;68821;59.134;37.894;2023-05-10T04:05:02;39.08;;;9.43;;
67516;SDS011;68821;59.134;37.894;2023-05-10T04:07:28;32.45;;;7.93;;
67516;SDS011;68821;59.134;37.894;2023-05-10T04:09:54;30.35;;;8.02;;
67516;SDS011;68821;59.134;37.894;2023-05-10T04:12:20;25.60;;;7.18;;
67516;SDS011;68821;59.134;37.894;2023-05-10T04:14:46;33.30;;;6.90;;
67516;SDS011;68821;59.134;37.894;2023-05-10T04:17:13;23.52;;;7.53;;
67516;SDS011;68821;59.134;37.894;2023-05-10T04:19:39;33.35;;;7.35;;
67516;SDS011;68821;59.134;37.894;2023-05-10T04:22:05;24.17;;;6.85;;
67516;SDS011;68821;59.134;37.894;2023-05-10T04:24:31;27.30;;;6.63;;
67516;SDS011;68821;59.134;37.894;2023-05-10T04:26:57;22.27;;;6.03;;
67516;SDS011;68821;59.134;37.894;2023-05-10T04:29:23;21.65;;;6.70;;
67516;SDS011;68821;59.134;37.894;2023-05-10T04:31:49;21.92;;;5.78;;
67516;SDS011;68821;59.134;37.894;2023-05-10T04:34:16;21.40;;;6.18;;
67516;SDS011;68821;59.134;37.894;2023-05-10T04:36:42;15.40;;;6.07;;
67516;SDS011;68821;59.134;37.894;2023-05-10T04:39:08;29.75;;;5.20;;
67516;SDS011;68821;59.134;37.894;2023-05-10T04:41:35;18.70;;;5.82;;
67516;SDS011;68821;59.134;37.894;2023-05-10T04:44:03;14.10;;;4.88;;
67516;SDS011;68821;59.134;37.894;2023-05-10T04:46:29;21.08;;;5.15;;
67516;SDS011;68821;59.134;37.894;2023-05-10T04:48:56;24.42;;;5.78;;
67516;SDS011;68821;59.134;37.894;2023-05-10T04:51:22;13.02;;;3.97;;
67516;SDS011;68821;59.134;37.894;2023-05-10T04:53:48;21.55;;;4.72;;
67516;SDS011;68821;59.134;37.894;2023-05-10T04:56:14;15.93;;;4.28;;
67516;SDS011;68821;59.134;37.894;2023-05-10T04:58:40;15.90;;;4.05;;
67516;SDS011;68821;59.134;37.894;2023-05-10T05:01:06;23.13;;;4.93;;
67516;SDS011;68821;59.134;37.894;2023-05-10T05:03:33;12.88;;;4.47;;
67516;SDS011;68821;59.134;37.894;2023-05-10T05:05:59;11.05;;;4.53;;
67516;SDS011;68821;59.134;37.894;2023-05-10T05:08:25;18.40;;;4.90;;
67516;SDS011;68821;59.134;37.894;2023-05-10T05:10:52;11.73;;;4.57;;
67516;SDS011;68821;59.134;37.894;2023-05-10T05:13:18;14.43;;;3.90;;
67516;SDS011;68821;59.134;37.894;2023-05-10T05:15:44;13.25;;;4.07;;
67516;SDS011;68821;59.134;37.894;2023-05-10T05:18:10;16.73;;;4.45;;
67516;SDS011;68821;59.134;37.894;2023-05-10T05:20:37;14.57;;;5.18;;
67516;SDS011;68821;59.134;37.894;2023-05-10T05:23:03;16.13;;;3.88;;
67516;SDS011;68821;59.134;37.894;2023-05-10T05:25:29;12.55;;;3.47;;
67516;SDS011;68821;59.134;37.894;2023-05-10T05:27:55;16.73;;;4.28;;
67516;SDS011;68821;59.134;37.894;2023-05-10T05:30:21;17.45;;;4.15;;
67516;SDS011;68821;59.134;37.894;2023-05-10T05:32:47;18.52;;;4.63;;
67516;SDS011;68821;59.134;37.894;2023-05-10T05:35:13;13.73;;;4.10;;
67516;SDS011;68821;59.134;37.894;2023-05-10T05:37:39;21.98;;;4.72;;
67516;SDS011;68821;59.134;37.894;2023-05-10T05:40:06;15.45;;;4.10;;
67516;SDS011;68821;59.134;37.894;2023-05-10T05:42:32;16.98;;;4.45;;
67516;SDS011;68821;59.134;37.894;2023-05-10T05:44:58;19.23;;;5.05;;
67516;SDS011;68821;59.134;37.894;2023-05-10T05:47:24;20.02;;;5.65;;
67516;SDS011;68821;59.134;37.894;2023-05-10T05:49:50;21.90;;;6.30;;
67516;SDS011;68821;59.134;37.894;2023-05-10T05:52:16;21.00;;;6.68;;
67516;SDS011;68821;59.134;37.894;2023-05-10T05:54:43;39.58;;;10.57;;
67516;SDS011;68821;59.134;37.894;2023-05-10T05:57:09;40.47;;;11.30;;
67516;SDS011;68821;59.134;37.894;2023-05-10T05:59:35;40.28;;;14.10;;
67516;SDS011;68821;59.134;37.894;2023-05-10T06:02:01;36.25;;;12.10;;
67516;SDS011;68821;59.134;37.894;2023-05-10T06:04:27;30.23;;;8.05;;
67516;SDS011;68821;59.134;37.894;2023-05-10T06:06:53;23.95;;;7.57;;
67516;SDS011;68821;59.134;37.894;2023-05-10T06:09:19;43.22;;;8.85;;
67516;SDS011;68821;59.134;37.894;2023-05-10T06:11:45;26.58;;;8.43;;
67516;SDS011;68821;59.134;37.894;2023-05-10T06:14:12;24.25;;;8.38;;
67516;SDS011;68821;59.134;37.894;2023-05-10T06:16:38;24.52;;;8.63;;
67516;SDS011;68821;59.134;37.894;2023-05-10T06:19:04;24.48;;;7.10;;
67516;SDS011;68821;59.134;37.894;2023-05-10T06:21:30;28.30;;;6.50;;
67516;SDS011;68821;59.134;37.894;2023-05-10T06:23:56;24.50;;;6.18;;
67516;SDS011;68821;59.134;37.894;2023-05-10T06:26:22;25.00;;;7.32;;
67516;SDS011;68821;59.134;37.894;2023-05-10T06:28:48;24.48;;;7.30;;
67516;SDS011;68821;59.134;37.894;2023-05-10T06:31:14;18.55;;;6.95;;
67516;SDS011;68821;59.134;37.894;2023-05-10T06:33:41;22.05;;;6.63;;
67516;SDS011;68821;59.134;37.894;2023-05-10T06:36:07;17.25;;;5.72;;
67516;SDS011;68821;59.134;37.894;2023-05-10T06:38:33;17.45;;;6.22;;
67516;SDS011;68821;59.134;37.894;2023-05-10T06:40:59;22.83;;;5.93;;
67516;SDS011;68821;59.134;37.894;2023-05-10T06:43:26;15.63;;;7.03;;
67516;SDS011;68821;59.134;37.894;2023-05-10T06:45:54;34.03;;;6.85;;
67516;SDS011;68821;59.134;37.894;2023-05-10T06:48:20;18.67;;;6.60;;
67516;SDS011;68821;59.134;37.894;2023-05-10T06:50:46;24.90;;;7.22;;
67516;SDS011;68821;59.134;37.894;2023-05-10T06:53:12;13.57;;;4.63;;
67516;SDS011;68821;59.134;37.894;2023-05-10T06:55:38;14.38;;;4.10;;
67516;SDS011;68821;59.134;37.894;2023-05-10T06:58:05;11.38;;;4.05;;
67516;SDS011;68821;59.134;37.894;2023-05-10T07:00:31;13.38;;;3.70;;
67516;SDS011;68821;59.134;37.894;2023-05-10T07:02:57;8.82;;;2.33;;
67516;SDS011;68821;59.134;37.894;2023-05-10T07:05:24;6.95;;;2.55;;
67516;SDS011;68821;59.134;37.894;2023-05-10T07:07:50;9.23;;;2.15;;
67516;SDS011;68821;59.134;37.894;2023-05-10T07:10:17;6.47;;;1.30;;
67516;SDS011;68821;59.134;37.894;2023-05-10T07:12:43;11.80;;;3.58;;
67516;SDS011;68821;59.134;37.894;2023-05-10T07:15:09;6.85;;;1.55;;
67516;SDS011;68821;59.134;37.894;2023-05-10T07:17:35;4.13;;;1.20;;
67516;SDS011;68821;59.134;37.894;2023-05-10T07:20:01;4.30;;;1.20;;
67516;SDS011;68821;59.134;37.894;2023-05-10T07:22:28;4.32;;;1.15;;
67516;SDS011;68821;59.134;37.894;2023-05-10T07:24:54;3.65;;;1.02;;
67516;SDS011;68821;59.134;37.894;2023-05-10T07:27:20;6.20;;;1.40;;
67516;SDS011;68821;59.134;37.894;2023-05-10T07:29:46;6.40;;;1.35;;
67516;SDS011;68821;59.134;37.894;2023-05-10T07:32:12;4.78;;;1.20;;
67516;SDS011;68821;59.134;37.894;2023-05-10T07:34:38;7.15;;;1.20;;
67516;SDS011;68821;59.134;37.894;2023-05-10T07:37:04;3.50;;;1.13;;
67516;SDS011;68821;59.134;37.894;2023-05-10T07:39:31;3.25;;;1.30;;
67516;SDS011;68821;59.134;37.894;2023-05-10T07:41:57;3.15;;;0.88;;
67516;SDS011;68821;59.134;37.894;2023-05-10T07:44:23;5.95;;;1.15;;
67516;SDS011;68821;59.134;37.894;2023-05-10T07:46:49;2.28;;;0.90;;
67516;SDS011;68821;59.134;37.894;2023-05-10T07:49:16;3.90;;;1.10;;
67516;SDS011;68821;59.134;37.894;2023-05-10T07:51:42;4.60;;;1.13;;
67516;SDS011;68821;59.134;37.894;2023-05-10T07:54:08;3.30;;;1.30;;
67516;SDS011;68821;59.134;37.894;2023-05-10T07:56:34;5.63;;;1.67;;
67516;SDS011;68821;59.134;37.894;2023-05-10T07:59:00;4.05;;;1.50;;
67516;SDS011;68821;59.134;37.894;2023-05-10T08:01:32;4.40;;;1.33;;
67516;SDS011;68821;59.134;37.894;2023-05-10T08:04:00;3.05;;;1.10;;
67516;SDS011;68821;59.134;37.894;2023-05-10T08:08:53;3.67;;;1.20;;
67516;SDS011;68821;59.134;37.894;2023-05-10T08:11:20;3.22;;;1.30;;
67516;SDS011;68821;59.134;37.894;2023-05-10T08:13:47;2.97;;;0.90;;
67516;SDS011;68821;59.134;37.894;2023-05-10T08:16:14;3.75;;;1.13;;
67516;SDS011;68821;59.134;37.894;2023-05-10T08:18:41;2.63;;;0.93;;
67516;SDS011;68821;59.134;37.894;2023-05-10T08:21:07;4.47;;;0.90;;
67516;SDS011;68821;59.134;37.894;2023-05-10T08:23:33;3.63;;;1.17;;
67516;SDS011;68821;59.134;37.894;2023-05-10T08:25:59;4.05;;;1.38;;
67516;SDS011;68821;59.134;37.894;2023-05-10T08:28:26;4.57;;;1.40;;
67516;SDS011;68821;59.134;37.894;2023-05-10T08:30:52;2.60;;;1.20;;
67516;SDS011;68821;59.134;37.894;2023-05-10T08:33:19;3.72;;;1.30;;
67516;SDS011;68821;59.134;37.894;2023-05-10T08:35:45;3.92;;;1.40;;
67516;SDS011;68821;59.134;37.894;2023-05-10T08:38:11;3.72;;;1.30;;
67516;SDS011;68821;59.134;37.894;2023-05-10T08:40:39;5.38;;;1.27;;
67516;SDS011;68821;59.134;37.894;2023-05-10T08:43:09;4.90;;;1.50;;
67516;SDS011;68821;59.134;37.894;2023-05-10T08:45:41;5.43;;;1.40;;
67516;SDS011;68821;59.134;37.894;2023-05-10T08:48:09;5.40;;;1.25;;
67516;SDS011;68821;59.134;37.894;2023-05-10T08:50:39;3.63;;;1.23;;
67516;SDS011;68821;59.134;37.894;2023-05-10T08:53:11;4.50;;;1.52;;
67516;SDS011;68821;59.134;37.894;2023-05-10T08:55:39;6.40;;;1.70;;
67516;SDS011;68821;59.134;37.894;2023-05-10T08:58:08;3.78;;;1.20;;
67516;SDS011;68821;59.134;37.894;2023-05-10T09:00:36;5.75;;;1.30;;
67516;SDS011;68821;59.134;37.894;2023-05-10T09:03:03;6.00;;;1.45;;
67516;SDS011;68821;59.134;37.894;2023-05-10T09:05:31;3.20;;;1.30;;
67516;SDS011;68821;59.134;37.894;2023-05-10T09:07:57;3.22;;;1.00;;
67516;SDS011;68821;59.134;37.894;2023-05-10T09:10:26;4.15;;;1.33;;
67516;SDS011;68821;59.134;37.894;2023-05-10T09:12:55;4.25;;;1.38;;
67516;SDS011;68821;59.134;37.894;2023-05-10T09:15:22;4.25;;;1.50;;
67516;SDS011;68821;59.134;37.894;2023-05-10T09:17:49;3.72;;;1.42;;
67516;SDS011;68821;59.134;37.894;2023-05-10T09:20:15;6.05;;;1.25;;
67516;SDS011;68821;59.134;37.894;2023-05-10T09:22:43;6.55;;;1.33;;
67516;SDS011;68821;59.134;37.894;2023-05-10T09:25:10;5.22;;;1.33;;
67516;SDS011;68821;59.134;37.894;2023-05-10T09:27:38;3.70;;;1.30;;
67516;SDS011;68821;59.134;37.894;2023-05-10T09:30:06;3.60;;;1.48;;
67516;SDS011;68821;59.134;37.894;2023-05-10T09:32:42;3.95;;;1.25;;
67516;SDS011;68821;59.134;37.894;2023-05-10T09:35:14;4.70;;;1.40;;
67516;SDS011;68821;59.134;37.894;2023-05-10T09:37:42;4.43;;;1.30;;
67516;SDS011;68821;59.134;37.894;2023-05-10T09:40:12;2.92;;;1.20;;
67516;SDS011;68821;59.134;37.894;2023-05-10T09:42:40;2.85;;;1.20;;
67516;SDS011;68821;59.134;37.894;2023-05-10T09:45:20;6.30;;;1.63;;
67516;SDS011;68821;59.134;37.894;2023-05-10T09:47:47;3.05;;;1.13;;
67516;SDS011;68821;59.134;37.894;2023-05-10T09:50:13;4.35;;;1.92;;
67516;SDS011;68821;59.134;37.894;2023-05-10T09:57:46;2.97;;;1.05;;
67516;SDS011;68821;59.134;37.894;2023-05-10T10:00:17;3.95;;;1.13;;
67516;SDS011;68821;59.134;37.894;2023-05-10T10:02:47;3.20;;;1.20;;
67516;SDS011;68821;59.134;37.894;2023-05-10T10:05:33;6.60;;;1.38;;
67516;SDS011;68821;59.134;37.894;2023-05-10T10:08:02;5.00;;;1.35;;
67516;SDS011;68821;59.134;37.894;2023-05-10T10:10:30;4.05;;;1.40;;
67516;SDS011;68821;59.134;37.894;2023-05-10T10:12:57;5.75;;;1.38;;
67516;SDS011;68821;59.134;37.894;2023-05-10T10:15:24;3.50;;;1.40;;
67516;SDS011;68821;59.134;37.894;2023-05-10T10:17:51;4.28;;;1.60;;
67516;SDS011;68821;59.134;37.894;2023-05-10T10:20:19;2.33;;;1.13;;
67516;SDS011;68821;59.134;37.894;2023-05-10T10:22:47;3.67;;;1.30;;
67516;SDS011;68821;59.134;37.894;2023-05-10T10:25:14;4.15;;;1.40;;
67516;SDS011;68821;59.134;37.894;2023-05-10T10:30:21;3.20;;;1.25;;
67516;SDS011;68821;59.134;37.894;2023-05-10T10:33:06;4.97;;;1.30;;
67516;SDS011;68821;59.134;37.894;2023-05-10T10:35:48;3.30;;;1.35;;
67516;SDS011;68821;59.134;37.894;2023-05-10T10:38:16;3.75;;;1.23;;
67516;SDS011;68821;59.134;37.894;2023-05-10T10:40:42;5.80;;;1.30;;
67516;SDS011;68821;59.134;37.894;2023-05-10T10:43:24;7.15;;;1.30;;
67516;SDS011;68821;59.134;37.894;2023-05-10T10:46:13;5.38;;;1.38;;
67516;SDS011;68821;59.134;37.894;2023-05-10T10:48:41;4.30;;;1.63;;
67516;SDS011;68821;59.134;37.894;2023-05-10T10:51:13;4.78;;;1.42;;
67516;SDS011;68821;59.134;37.894;2023-05-10T10:53:40;4.65;;;1.90;;
67516;SDS011;68821;59.134;37.894;2023-05-10T10:56:07;9.30;;;1.80;;
67516;SDS011;68821;59.134;37.894;2023-05-10T10:58:35;4.85;;;1.30;;
67516;SDS011;68821;59.134;37.894;2023-05-10T11:01:16;4.45;;;1.15;;
67516;SDS011;68821;59.134;37.894;2023-05-10T11:06:45;3.40;;;1.40;;
67516;SDS011;68821;59.134;37.894;2023-05-10T11:09:11;3.72;;;1.50;;
67516;SDS011;68821;59.134;37.894;2023-05-10T11:11:51;4.38;;;1.50;;
67516;SDS011;68821;59.134;37.894;2023-05-10T11:14:20;3.85;;;2.13;;
67516;SDS011;68821;59.134;37.894;2023-05-10T11:16:48;4.90;;;1.60;;
67516;SDS011;68821;59.134;37.894;2023-05-10T11:19:15;3.78;;;1.63;;
67516;SDS011;68821;59.134;37.894;2023-05-10T11:21:49;6.07;;;1.35;;
67516;SDS011;68821;59.134;37.894;2023-05-10T11:24:36;4.05;;;1.45;;
67516;SDS011;68821;59.134;37.894;2023-05-10T11:27:03;6.63;;;1.50;;
67516;SDS011;68821;59.134;37.894;2023-05-10T11:29:29;3.95;;;1.38;;
67516;SDS011;68821;59.134;37.894;2023-05-10T11:31:58;4.53;;;1.50;;
67516;SDS011;68821;59.134;37.894;2023-05-10T11:34:26;6.22;;;1.50;;
67516;SDS011;68821;59.134;37.894;2023-05-10T11:36:56;6.97;;;1.60;;
67516;SDS011;68821;59.134;37.894;2023-05-10T11:39:30;3.85;;;1.40;;
67516;SDS011;68821;59.134;37.894;2023-05-10T11:41:57;8.43;;;1.50;;
67516;SDS011;68821;59.134;37.894;2023-05-10T11:44:28;3.67;;;1.58;;
67516;SDS011;68821;59.134;37.894;2023-05-10T11:49:24;3.58;;;1.40;;
67516;SDS011;68821;59.134;37.894;2023-05-10T11:51:51;3.70;;;1.45;;
67516;SDS011;68821;59.134;37.894;2023-05-10T11:54:17;5.32;;;1.40;;
67516;SDS011;68821;59.134;37.894;2023-05-10T11:59:13;5.28;;;2.17;;
67516;SDS011;68821;59.134;37.894;2023-05-10T12:01:41;4.22;;;1.50;;
67516;SDS011;68821;59.134;37.894;2023-05-10T12:04:07;3.97;;;1.40;;
67516;SDS011;68821;59.134;37.894;2023-05-10T12:06:36;5.13;;;1.40;;
67516;SDS011;68821;59.134;37.894;2023-05-10T12:11:36;11.32;;;3.67;;
67516;SDS011;68821;59.134;37.894;2023-05-10T12:14:04;4.63;;;1.60;;
67516;SDS011;68821;59.134;37.894;2023-05-10T12:16:31;5.97;;;2.03;;
67516;SDS011;68821;59.134;37.894;2023-05-10T12:18:57;3.70;;;1.60;;
67516;SDS011;68821;59.134;37.894;2023-05-10T12:21:25;4.63;;;1.60;;
67516;SDS011;68821;59.134;37.894;2023-05-10T12:23:59;5.40;;;1.67;;
67516;SDS011;68821;59.134;37.894;2023-05-10T12:26:28;7.57;;;1.60;;
67516;SDS011;68821;59.134;37.894;2023-05-10T12:28:55;5.38;;;1.55;;
67516;SDS011;68821;59.134;37.894;2023-05-10T12:34:30;7.43;;;1.85;;
67516;SDS011;68821;59.134;37.894;2023-05-10T12:36:57;5.50;;;1.40;;
67516;SDS011;68821;59.134;37.894;2023-05-10T12:39:24;5.53;;;1.80;;
67516;SDS011;68821;59.134;37.894;2023-05-10T12:41:51;5.57;;;1.60;;
67516;SDS011;68821;59.134;37.894;2023-05-10T12:44:17;7.47;;;1.83;;
67516;SDS011;68821;59.134;37.894;2023-05-10T12:46:44;3.83;;;1.70;;
67516;SDS011;68821;59.134;37.894;2023-05-10T12:49:10;3.60;;;1.67;;
67516;SDS011;68821;59.134;37.894;2023-05-10T12:54:02;4.82;;;1.67;;
67516;SDS011;68821;59.134;37.894;2023-05-10T12:56:29;4.45;;;1.60;;
67516;SDS011;68821;59.134;37.894;2023-05-10T12:58:55;3.92;;;1.70;;
67516;SDS011;68821;59.134;37.894;2023-05-10T13:01:21;4.35;;;1.55;;
67516;SDS011;68821;59.134;37.894;2023-05-10T13:03:48;3.50;;;1.80;;
67516;SDS011;68821;59.134;37.894;2023-05-10T13:06:14;4.63;;;1.70;;
67516;SDS011;68821;59.134;37.894;2023-05-10T13:08:40;4.85;;;1.60;;
67516;SDS011;68821;59.134;37.894;2023-05-10T13:11:06;4.03;;;1.60;;
67516;SDS011;68821;59.134;37.894;2023-05-10T13:13:33;6.57;;;1.95;;
67516;SDS011;68821;59.134;37.894;2023-05-10T13:15:59;8.35;;;1.92;;
67516;SDS011;68821;59.134;37.894;2023-05-10T13:18:25;5.97;;;1.75;;
67516;SDS011;68821;59.134;37.894;2023-05-10T13:20:51;6.88;;;2.05;;
67516;SDS011;68821;59.134;37.894;2023-05-10T13:23:19;4.38;;;1.60;;
67516;SDS011;68821;59.134;37.894;2023-05-10T13:25:45;6.25;;;2.05;;
67516;SDS011;68821;59.134;37.894;2023-05-10T13:28:11;10.38;;;2.30;;
67516;SDS011;68821;59.134;37.894;2023-05-10T13:30:38;9.23;;;2.47;;
67516;SDS011;68821;59.134;37.894;2023-05-10T13:35:30;7.57;;;2.33;;
67516;SDS011;68821;59.134;37.894;2023-05-10T13:38:00;6.97;;;2.15;;
67516;SDS011;68821;59.134;37.894;2023-05-10T13:42:53;8.25;;;1.77;;
67516;SDS011;68821;59.134;37.894;2023-05-10T13:47:46;5.72;;;2.08;;
67516;SDS011;68821;59.134;37.894;2023-05-10T13:50:12;6.78;;;1.70;;
67516;SDS011;68821;59.134;37.894;2023-05-10T13:55:05;6.88;;;1.75;;
67516;SDS011;68821;59.134;37.894;2023-05-10T13:57:31;5.53;;;1.67;;
67516;SDS011;68821;59.134;37.894;2023-05-10T14:00:00;5.03;;;2.15;;
67516;SDS011;68821;59.134;37.894;2023-05-10T14:02:26;3.63;;;2.00;;
67516;SDS011;68821;59.134;37.894;2023-05-10T14:04:53;7.45;;;1.52;;
67516;SDS011;68821;59.134;37.894;2023-05-10T14:07:19;8.80;;;1.80;;
67516;SDS011;68821;59.134;37.894;2023-05-10T14:09:45;4.75;;;1.60;;
67516;SDS011;68821;59.134;37.894;2023-05-10T14:12:11;6.80;;;1.75;;
67516;SDS011;68821;59.134;37.894;2023-05-10T14:14:37;4.63;;;1.63;;
67516;SDS011;68821;59.134;37.894;2023-05-10T14:17:04;4.28;;;1.65;;
67516;SDS011;68821;59.134;37.894;2023-05-10T14:19:30;7.70;;;2.00;;
67516;SDS011;68821;59.134;37.894;2023-05-10T14:21:59;5.65;;;1.77;;
67516;SDS011;68821;59.134;37.894;2023-05-10T14:26:51;13.18;;;1.60;;
67516;SDS011;68821;59.134;37.894;2023-05-10T14:29:22;6.32;;;1.58;;
67516;SDS011;68821;59.134;37.894;2023-05-10T14:31:49;8.10;;;1.70;;
67516;SDS011;68821;59.134;37.894;2023-05-10T14:34:15;4.05;;;1.63;;
67516;SDS011;68821;59.134;37.894;2023-05-10T14:36:41;6.45;;;1.88;;
67516;SDS011;68821;59.134;37.894;2023-05-10T14:39:07;8.23;;;1.60;;
67516;SDS011;68821;59.134;37.894;2023-05-10T14:41:35;9.63;;;1.85;;
67516;SDS011;68821;59.134;37.894;2023-05-10T14:44:01;4.18;;;1.60;;
67516;SDS011;68821;59.134;37.894;2023-05-10T14:49:00;5.22;;;1.45;;
67516;SDS011;68821;59.134;37.894;2023-05-10T14:51:26;4.88;;;1.35;;
67516;SDS011;68821;59.134;37.894;2023-05-10T14:53:52;3.83;;;1.33;;
67516;SDS011;68821;59.134;37.894;2023-05-10T14:56:18;4.05;;;1.58;;
67516;SDS011;68821;59.134;37.894;2023-05-10T14:58:44;7.00;;;1.63;;
67516;SDS011;68821;59.134;37.894;2023-05-10T15:01:10;4.57;;;1.30;;
67516;SDS011;68821;59.134;37.894;2023-05-10T15:03:36;4.32;;;1.60;;
67516;SDS011;68821;59.134;37.894;2023-05-10T15:06:03;5.32;;;1.58;;
67516;SDS011;68821;59.134;37.894;2023-05-10T15:08:29;5.13;;;1.70;;
67516;SDS011;68821;59.134;37.894;2023-05-10T15:10:55;8.23;;;1.85;;
67516;SDS011;68821;59.134;37.894;2023-05-10T15:13:24;7.72;;;1.73;;
67516;SDS011;68821;59.134;37.894;2023-05-10T15:15:50;6.03;;;1.65;;
67516;SDS011;68821;59.134;37.894;2023-05-10T15:18:16;4.70;;;1.65;;
67516;SDS011;68821;59.134;37.894;2023-05-10T15:20:42;7.88;;;2.25;;
67516;SDS011;68821;59.134;37.894;2023-05-10T15:23:08;4.47;;;1.83;;
67516;SDS011;68821;59.134;37.894;2023-05-10T15:25:34;10.75;;;1.65;;
67516;SDS011;68821;59.134;37.894;2023-05-10T15:28:03;9.82;;;2.20;;
67516;SDS011;68821;59.134;37.894;2023-05-10T15:30:29;8.60;;;2.20;;
67516;SDS011;68821;59.134;37.894;2023-05-10T15:32:55;8.52;;;2.03;;